Time;durP1;ratioP1;P1;durP2;ratioP2;P2;SDS_P1;SDS_P2;PMS_P1;PMS_P2;Temp;Humidity;BMP_temperature;BMP_pressure;BME280_temperature;BME280_humidity;BME280_pressure;Samples;Min_cycle;Max_cycle;Signal;HPM_P1;HPM_P2
2021/06/14 00:00:10;;;;;;;3.75;2.35;;;;;;;;;;339552;29;1287;-69
2021/06/14 00:00:23;;;;;;;3.92;2.30;;;;;;;;;;339273;29;16935;-69
2021/06/14 00:00:35;;;;;;;4.55;2.40;;;;;;;;;;339908;29;980;-69
2021/06/14 00:00:47;;;;;;;4.30;2.22;;;;;;;;;;339851;29;1214;-69
2021/06/14 00:01:00;;;;;;;5.00;2.30;;;;;;;;;;339982;29;1212;-69
2021/06/14 00:01:13;;;;;;;5.45;2.40;;;;;;;;;;340510;29;15942;-69
2021/06/14 00:01:26;;;;;;;6.13;2.58;;;;;;;;;;342440;28;994;-69
2021/06/14 00:01:38;;;;;;;5.85;2.55;;;;;;;;;;342398;28;1219;-69
2021/06/14 00:01:51;;;;;;;4.70;2.45;;;;;;;;;;343762;28;1136;-68
2021/06/14 00:02:04;;;;;;;3.33;2.30;;;;;;;;;;345144;28;1129;-69
2021/06/14 00:02:16;;;;;;;3.83;2.40;;;;;;;;;;345075;28;1136;-69
2021/06/14 00:02:29;;;;;;;5.05;2.53;;;;;;;;;;345085;28;1141;-69
2021/06/14 00:02:42;;;;;;;5.90;2.50;;;;;;;;;;345088;28;1145;-68
2021/06/14 00:02:54;;;;;;;5.80;2.60;;;;;;;;;;344851;28;1089;-69
2021/06/14 00:03:06;;;;;;;4.55;2.30;;;;;;;;;;345079;28;1156;-69
2021/06/14 00:03:19;;;;;;;3.83;2.30;;;;;;;;;;345074;28;1331;-69
2021/06/14 00:03:31;;;;;;;4.10;2.20;;;;;;;;;;345011;28;1401;-69
2021/06/14 00:03:43;;;;;;;5.35;2.40;;;;;;;;;;345061;28;947;-71
2021/06/14 00:03:56;;;;;;;5.30;2.30;;;;;;;;;;345678;28;17443;-69
2021/06/14 00:04:09;;;;;;;5.10;2.28;;;;;;;;;;346383;28;1086;-69
2021/06/14 00:04:21;;;;;;;3.63;2.20;;;;;;;;;;346307;28;1387;-70
2021/06/14 00:04:35;;;;;;;3.28;2.22;;;;;;;;;;346308;28;1231;-68
2021/06/14 00:04:47;;;;;;;3.45;2.20;;;;;;;;;;344838;28;39800;-68
2021/06/14 00:05:00;;;;;;;6.00;2.40;;;;;;;;;;345029;28;1007;-69
2021/06/14 00:05:28;;;;;;;6.07;2.60;;;;;;;;;;343166;28;64076;-69
2021/06/14 00:05:42;;;;;;;5.23;2.50;;;;;;;;;;342713;28;63497;-68
2021/06/14 00:05:54;;;;;;;4.05;2.30;;;;;;;;;;344037;28;17305;-69
2021/06/14 00:06:06;;;;;;;3.03;2.28;;;;;;;;;;343532;28;1002;-69
2021/06/14 00:06:18;;;;;;;3.38;2.30;;;;;;;;;;343787;28;1176;-69
2021/06/14 00:06:31;;;;;;;5.22;2.50;;;;;;;;;;343653;28;1074;-69
2021/06/14 00:06:43;;;;;;;5.50;2.53;;;;;;;;;;343367;28;1258;-69
2021/06/14 00:06:55;;;;;;;4.65;2.50;;;;;;;;;;343766;28;1046;-68
2021/06/14 00:07:08;;;;;;;3.38;2.30;;;;;;;;;;344924;28;1085;-69
2021/06/14 00:07:21;;;;;;;3.55;2.33;;;;;;;;;;344971;28;1067;-70
2021/06/14 00:07:34;;;;;;;3.42;2.20;;;;;;;;;;344491;28;17004;-69
2021/06/14 00:07:47;;;;;;;3.63;2.20;;;;;;;;;;344769;28;1091;-69
2021/06/14 00:08:00;;;;;;;3.92;2.25;;;;;;;;;;344937;28;1494;-70
2021/06/14 00:08:16;;;;;;;4.36;2.40;;;;;;;;;;344935;28;1140;-69
2021/06/14 00:08:29;;;;;;;4.28;2.40;;;;;;;;;;343724;28;41121;-69
2021/06/14 00:08:42;;;;;;;4.80;2.50;;;;;;;;;;345096;28;1011;-69
2021/06/14 00:08:54;;;;;;;6.80;2.55;;;;;;;;;;344987;28;1039;-69
2021/06/14 00:09:07;;;;;;;7.48;2.46;;;;;;;;;;345139;28;1071;-69
2021/06/14 00:09:21;;;;;;;5.38;2.45;;;;;;;;;;345028;28;1125;-69
2021/06/14 00:09:36;;;;;;;3.85;2.40;;;;;;;;;;342833;28;63741;-70
2021/06/14 00:09:48;;;;;;;4.07;2.30;;;;;;;;;;344997;28;1177;-69
2021/06/14 00:10:01;;;;;;;4.13;2.40;;;;;;;;;;344767;28;1003;-67
2021/06/14 00:10:14;;;;;;;3.80;2.30;;;;;;;;;;345228;28;1361;-70
2021/06/14 00:10:27;;;;;;;3.28;2.10;;;;;;;;;;344734;28;1071;-70
2021/06/14 00:10:40;;;;;;;4.10;2.40;;;;;;;;;;344354;28;18029;-68
2021/06/14 00:10:54;;;;;;;4.74;2.46;;;;;;;;;;344844;28;1316;-69
2021/06/14 00:11:07;;;;;;;4.43;2.30;;;;;;;;;;344054;28;16040;-69
2021/06/14 00:11:19;;;;;;;4.82;2.30;;;;;;;;;;344948;28;1082;-66
2021/06/14 00:11:32;;;;;;;5.07;2.58;;;;;;;;;;346229;28;1106;-67
2021/06/14 00:11:44;;;;;;;4.85;2.90;;;;;;;;;;346458;28;1003;-67
2021/06/14 00:11:57;;;;;;;4.47;2.80;;;;;;;;;;346235;28;1286;-67
2021/06/14 00:12:11;;;;;;;3.90;2.60;;;;;;;;;;346443;28;1128;-67
2021/06/14 00:12:23;;;;;;;4.00;2.47;;;;;;;;;;345810;28;16128;-68
2021/06/14 00:12:35;;;;;;;4.53;2.50;;;;;;;;;;346363;28;1089;-68
2021/06/14 00:12:48;;;;;;;4.38;2.50;;;;;;;;;;346209;28;976;-68
2021/06/14 00:13:00;;;;;;;4.07;2.40;;;;;;;;;;346354;28;1061;-68
2021/06/14 00:13:13;;;;;;;5.43;2.60;;;;;;;;;;346353;28;1074;-68
2021/06/14 00:13:27;;;;;;;6.47;2.70;;;;;;;;;;346154;28;1153;-68
2021/06/14 00:13:39;;;;;;;5.50;2.53;;;;;;;;;;344997;28;1100;-69
2021/06/14 00:13:51;;;;;;;4.65;2.38;;;;;;;;;;345216;28;1073;-68
2021/06/14 00:14:04;;;;;;;4.22;2.40;;;;;;;;;;344924;28;985;-68
2021/06/14 00:14:16;;;;;;;4.30;2.40;;;;;;;;;;344954;28;1087;-68
2021/06/14 00:14:28;;;;;;;4.15;2.45;;;;;;;;;;345181;28;1293;-67
2021/06/14 00:14:40;;;;;;;4.82;2.40;;;;;;;;;;345371;28;1100;-68
2021/06/14 00:14:53;;;;;;;5.90;2.47;;;;;;;;;;345261;28;1024;-68
2021/06/14 00:15:06;;;;;;;6.36;2.40;;;;;;;;;;345246;28;1118;-68
2021/06/14 00:15:18;;;;;;;6.55;2.60;;;;;;;;;;345245;28;1161;-68
2021/06/14 00:15:30;;;;;;;5.68;2.60;;;;;;;;;;345337;28;1094;-68
2021/06/14 00:15:43;;;;;;;4.22;2.42;;;;;;;;;;345275;28;1094;-67
2021/06/14 00:15:55;;;;;;;5.10;2.50;;;;;;;;;;345137;28;1051;-68
2021/06/14 00:16:08;;;;;;;5.55;2.75;;;;;;;;;;345207;28;1122;-68
2021/06/14 00:16:20;;;;;;;5.82;2.80;;;;;;;;;;345233;28;1108;-68
2021/06/14 00:16:35;;;;;;;6.35;2.83;;;;;;;;;;345118;28;1094;-68
2021/06/14 00:16:47;;;;;;;4.65;2.80;;;;;;;;;;344117;28;40209;-68
2021/06/14 00:17:00;;;;;;;3.83;2.60;;;;;;;;;;345083;28;1619;-68
2021/06/14 00:17:12;;;;;;;5.22;2.50;;;;;;;;;;345415;28;1162;-69
2021/06/14 00:17:24;;;;;;;4.94;2.50;;;;;;;;;;345431;28;1075;-68
2021/06/14 00:17:36;;;;;;;4.22;2.55;;;;;;;;;;345295;28;1104;-68
2021/06/14 00:17:49;;;;;;;5.70;2.67;;;;;;;;;;345244;28;1197;-68
2021/06/14 00:18:02;;;;;;;5.60;2.65;;;;;;;;;;345261;28;1168;-68
2021/06/14 00:18:19;;;;;;;4.22;2.60;;;;;;;;;;345383;28;1068;-68
2021/06/14 00:18:32;;;;;;;4.53;2.60;;;;;;;;;;343139;28;64016;-68
2021/06/14 00:18:44;;;;;;;4.52;2.80;;;;;;;;;;345205;28;1097;-68
2021/06/14 00:18:56;;;;;;;4.60;2.70;;;;;;;;;;345295;28;1192;-70
2021/06/14 00:19:08;;;;;;;4.65;2.80;;;;;;;;;;345315;28;1424;-68
2021/06/14 00:19:21;;;;;;;4.85;2.65;;;;;;;;;;345448;28;1074;-67
2021/06/14 00:19:33;;;;;;;4.43;2.53;;;;;;;;;;345419;28;2275;-68
2021/06/14 00:19:47;;;;;;;4.95;2.42;;;;;;;;;;343510;28;1663;-68
2021/06/14 00:19:59;;;;;;;4.50;2.20;;;;;;;;;;343147;28;16717;-68
2021/06/14 00:20:12;;;;;;;3.88;2.30;;;;;;;;;;343681;28;1349;-68
2021/06/14 00:20:24;;;;;;;4.20;2.58;;;;;;;;;;343884;28;995;-67
2021/06/14 00:20:38;;;;;;;4.13;2.58;;;;;;;;;;343441;28;1625;-68
2021/06/14 00:20:55;;;;;;;4.40;2.46;;;;;;;;;;343629;28;2074;-68
2021/06/14 00:21:10;;;;;;;4.90;2.50;;;;;;;;;;340544;28;64004;-68
2021/06/14 00:21:22;;;;;;;4.78;2.65;;;;;;;;;;341191;28;40947;-67
2021/06/14 00:21:35;;;;;;;4.50;2.60;;;;;;;;;;342207;28;991;-68
2021/06/14 00:21:47;;;;;;;4.76;2.60;;;;;;;;;;343119;28;1381;-68
2021/06/14 00:21:59;;;;;;;4.95;2.60;;;;;;;;;;343833;28;1082;-68
2021/06/14 00:22:12;;;;;;;4.22;2.75;;;;;;;;;;343853;28;1318;-68
2021/06/14 00:22:24;;;;;;;4.32;2.67;;;;;;;;;;343665;28;1235;-68
2021/06/14 00:22:38;;;;;;;5.65;2.45;;;;;;;;;;343312;28;1003;-68
2021/06/14 00:22:50;;;;;;;6.10;2.55;;;;;;;;;;342130;28;16292;-68
2021/06/14 00:23:04;;;;;;;5.22;2.60;;;;;;;;;;342734;28;1236;-68
2021/06/14 00:23:16;;;;;;;5.32;2.70;;;;;;;;;;342188;28;18147;-68
2021/06/14 00:23:29;;;;;;;5.00;2.50;;;;;;;;;;342624;28;1298;-68
2021/06/14 00:23:41;;;;;;;4.65;2.28;;;;;;;;;;342770;28;1174;-67
2021/06/14 00:23:54;;;;;;;4.10;2.28;;;;;;;;;;343768;28;1026;-67
2021/06/14 00:24:06;;;;;;;3.75;2.30;;;;;;;;;;343831;28;1154;-67
2021/06/14 00:24:19;;;;;;;3.88;2.40;;;;;;;;;;345059;28;1177;-68
2021/06/14 00:24:31;;;;;;;4.13;2.35;;;;;;;;;;345318;28;1094;-67
2021/06/14 00:24:43;;;;;;;4.13;2.40;;;;;;;;;;345235;28;1216;-68
2021/06/14 00:24:55;;;;;;;4.32;2.40;;;;;;;;;;345328;28;1041;-67
2021/06/14 00:25:08;;;;;;;5.10;2.42;;;;;;;;;;345289;28;1166;-68
2021/06/14 00:25:25;;;;;;;4.80;2.38;;;;;;;;;;345038;28;1161;-67
2021/06/14 00:25:37;;;;;;;4.88;2.35;;;;;;;;;;343075;28;61782;-68
2021/06/14 00:25:50;;;;;;;5.45;2.40;;;;;;;;;;345301;28;1027;-67
2021/06/14 00:26:04;;;;;;;6.70;2.40;;;;;;;;;;345141;28;1359;-68
2021/06/14 00:26:16;;;;;;;6.10;2.25;;;;;;;;;;343890;28;16697;-68
2021/06/14 00:26:28;;;;;;;4.70;2.20;;;;;;;;;;342582;28;1185;-68
2021/06/14 00:26:42;;;;;;;4.50;2.30;;;;;;;;;;342423;28;1054;-68
2021/06/14 00:26:54;;;;;;;3.95;2.30;;;;;;;;;;342043;28;16609;-68
2021/06/14 00:27:06;;;;;;;3.50;2.35;;;;;;;;;;342374;28;1355;-67
2021/06/14 00:27:19;;;;;;;5.03;2.45;;;;;;;;;;342478;28;1922;-67
2021/06/14 00:27:31;;;;;;;4.78;2.50;;;;;;;;;;342720;28;1080;-68
2021/06/14 00:27:43;;;;;;;5.65;2.35;;;;;;;;;;342741;28;983;-67
2021/06/14 00:27:55;;;;;;;4.38;2.40;;;;;;;;;;342510;28;1154;-68
2021/06/14 00:28:08;;;;;;;4.18;2.40;;;;;;;;;;342402;28;1081;-67
2021/06/14 00:28:20;;;;;;;4.70;2.22;;;;;;;;;;342479;28;1053;-67
2021/06/14 00:28:33;;;;;;;4.75;2.33;;;;;;;;;;342641;28;975;-68
2021/06/14 00:28:45;;;;;;;4.57;2.30;;;;;;;;;;342759;28;1209;-67
2021/06/14 00:28:57;;;;;;;5.47;2.35;;;;;;;;;;342476;28;1281;-68
2021/06/14 00:29:09;;;;;;;5.82;2.38;;;;;;;;;;342530;28;1359;-67
2021/06/14 00:29:21;;;;;;;5.05;2.45;;;;;;;;;;342722;28;1109;-68
2021/06/14 00:29:33;;;;;;;3.80;2.40;;;;;;;;;;342588;28;1090;-68
2021/06/14 00:29:45;;;;;;;3.33;2.20;;;;;;;;;;342643;28;1072;-67
2021/06/14 00:29:58;;;;;;;2.85;2.17;;;;;;;;;;342459;28;1073;-68
2021/06/14 00:30:10;;;;;;;4.25;2.45;;;;;;;;;;342569;28;1047;-68
2021/06/14 00:30:22;;;;;;;4.82;2.63;;;;;;;;;;342555;28;1053;-67
2021/06/14 00:30:37;;;;;;;5.28;2.62;;;;;;;;;;342605;28;1300;-68
2021/06/14 00:30:51;;;;;;;5.88;2.45;;;;;;;;;;342463;28;40839;-68
2021/06/14 00:31:03;;;;;;;5.65;2.33;;;;;;;;;;343748;28;1189;-67
2021/06/14 00:31:15;;;;;;;5.47;2.28;;;;;;;;;;344053;28;1923;-68
2021/06/14 00:31:28;;;;;;;4.72;2.30;;;;;;;;;;343799;28;1296;-68
2021/06/14 00:31:40;;;;;;;3.85;2.20;;;;;;;;;;343744;28;1142;-69
2021/06/14 00:31:52;;;;;;;3.83;2.28;;;;;;;;;;343828;28;1113;-68
2021/06/14 00:32:05;;;;;;;3.90;2.40;;;;;;;;;;344103;28;1161;-68
2021/06/14 00:32:17;;;;;;;4.45;2.40;;;;;;;;;;343823;28;1169;-67
2021/06/14 00:32:29;;;;;;;4.88;2.40;;;;;;;;;;343963;28;1123;-67
2021/06/14 00:32:41;;;;;;;5.00;2.40;;;;;;;;;;343743;28;1062;-67
2021/06/14 00:32:53;;;;;;;4.72;2.38;;;;;;;;;;344012;28;1276;-68
2021/06/14 00:33:06;;;;;;;5.90;2.30;;;;;;;;;;343751;28;1102;-67
2021/06/14 00:33:18;;;;;;;6.15;2.53;;;;;;;;;;343786;28;1017;-67
2021/06/14 00:33:31;;;;;;;5.88;2.60;;;;;;;;;;343772;28;1134;-67
2021/06/14 00:33:43;;;;;;;4.55;2.42;;;;;;;;;;343701;28;1095;-67
2021/06/14 00:33:55;;;;;;;4.80;2.40;;;;;;;;;;343936;28;1243;-68
2021/06/14 00:34:08;;;;;;;4.68;2.38;;;;;;;;;;343840;28;930;-68
2021/06/14 00:34:20;;;;;;;4.22;2.40;;;;;;;;;;343630;28;1478;-68
2021/06/14 00:34:33;;;;;;;4.38;2.40;;;;;;;;;;343648;28;1099;-69
2021/06/14 00:34:45;;;;;;;4.40;2.40;;;;;;;;;;342784;28;1412;-67
2021/06/14 00:34:57;;;;;;;4.32;2.50;;;;;;;;;;342542;28;977;-67
2021/06/14 00:35:09;;;;;;;3.78;2.35;;;;;;;;;;342496;28;1160;-67
2021/06/14 00:35:21;;;;;;;3.97;2.38;;;;;;;;;;342603;28;1129;-68
2021/06/14 00:35:34;;;;;;;3.30;2.20;;;;;;;;;;342446;28;1499;-67
2021/06/14 00:35:47;;;;;;;3.15;2.20;;;;;;;;;;342401;28;1128;-68
2021/06/14 00:35:59;;;;;;;3.97;2.20;;;;;;;;;;342468;28;1058;-68
2021/06/14 00:36:11;;;;;;;4.53;2.15;;;;;;;;;;342545;28;1035;-67
2021/06/14 00:36:23;;;;;;;4.97;2.30;;;;;;;;;;342415;28;975;-68
2021/06/14 00:36:35;;;;;;;5.72;2.50;;;;;;;;;;342737;28;1059;-67
2021/06/14 00:36:47;;;;;;;5.32;2.42;;;;;;;;;;342518;28;1149;-68
2021/06/14 00:36:59;;;;;;;4.70;2.25;;;;;;;;;;342724;28;999;-68
2021/06/14 00:37:11;;;;;;;6.50;2.47;;;;;;;;;;342749;28;1268;-68
2021/06/14 00:37:24;;;;;;;5.90;2.60;;;;;;;;;;342534;28;1040;-68
2021/06/14 00:37:36;;;;;;;4.35;2.50;;;;;;;;;;342715;28;1043;-68
2021/06/14 00:37:48;;;;;;;3.85;2.42;;;;;;;;;;342577;28;1102;-67
2021/06/14 00:38:00;;;;;;;3.67;2.40;;;;;;;;;;342672;28;1031;-67
2021/06/14 00:38:15;;;;;;;4.03;2.30;;;;;;;;;;342584;28;1099;-68
2021/06/14 00:38:27;;;;;;;4.70;2.40;;;;;;;;;;341897;28;16770;-69
2021/06/14 00:38:39;;;;;;;4.30;2.40;;;;;;;;;;342558;28;1090;-68
2021/06/14 00:38:51;;;;;;;4.13;2.38;;;;;;;;;;342630;28;1169;-67
2021/06/14 00:39:03;;;;;;;4.10;2.30;;;;;;;;;;342566;28;1183;-67
2021/06/14 00:39:15;;;;;;;3.45;2.20;;;;;;;;;;342527;28;1027;-67
2021/06/14 00:39:28;;;;;;;3.65;2.22;;;;;;;;;;342585;28;1111;-67
2021/06/14 00:39:40;;;;;;;3.47;2.20;;;;;;;;;;342575;28;1070;-67
2021/06/14 00:39:52;;;;;;;3.53;2.20;;;;;;;;;;342747;28;1086;-67
2021/06/14 00:40:04;;;;;;;3.95;2.20;;;;;;;;;;342552;28;1283;-67
2021/06/14 00:40:17;;;;;;;4.25;2.20;;;;;;;;;;342420;28;1085;-68
2021/06/14 00:40:29;;;;;;;4.63;2.20;;;;;;;;;;342465;28;1365;-67
2021/06/14 00:40:42;;;;;;;4.60;2.25;;;;;;;;;;342632;28;1196;-67
2021/06/14 00:40:54;;;;;;;5.20;2.30;;;;;;;;;;342601;28;1046;-69
2021/06/14 00:41:08;;;;;;;6.03;2.58;;;;;;;;;;342758;28;1059;-68
2021/06/14 00:41:20;;;;;;;4.68;2.63;;;;;;;;;;342143;28;16054;-67
2021/06/14 00:41:32;;;;;;;4.70;2.55;;;;;;;;;;342584;28;1073;-68
2021/06/14 00:41:44;;;;;;;4.28;2.50;;;;;;;;;;342687;28;1927;-67
2021/06/14 00:41:56;;;;;;;4.22;2.50;;;;;;;;;;342702;28;1073;-67
2021/06/14 00:42:08;;;;;;;3.83;2.38;;;;;;;;;;344885;28;1184;-67
2021/06/14 00:42:20;;;;;;;4.60;2.50;;;;;;;;;;344990;28;1076;-67
2021/06/14 00:42:32;;;;;;;4.28;2.60;;;;;;;;;;345065;28;1338;-68
2021/06/14 00:42:45;;;;;;;2.92;2.47;;;;;;;;;;345120;28;980;-68
2021/06/14 00:42:57;;;;;;;5.05;2.50;;;;;;;;;;344960;28;1065;-67
2021/06/14 00:43:09;;;;;;;5.63;2.50;;;;;;;;;;345101;28;1028;-67
2021/06/14 00:43:21;;;;;;;4.70;2.40;;;;;;;;;;344968;28;1074;-67
2021/06/14 00:43:34;;;;;;;4.13;2.30;;;;;;;;;;345021;28;1043;-67
2021/06/14 00:43:46;;;;;;;4.25;2.35;;;;;;;;;;345138;28;1370;-67
2021/06/14 00:43:59;;;;;;;4.10;2.47;;;;;;;;;;345082;28;1168;-68
2021/06/14 00:44:11;;;;;;;4.32;2.55;;;;;;;;;;344105;28;1289;-68
2021/06/14 00:44:23;;;;;;;4.57;2.67;;;;;;;;;;343759;28;1099;-68
2021/06/14 00:44:35;;;;;;;4.97;2.70;;;;;;;;;;343672;28;1296;-67
2021/06/14 00:44:47;;;;;;;6.10;2.75;;;;;;;;;;344157;28;1058;-68
2021/06/14 00:44:59;;;;;;;5.80;2.63;;;;;;;;;;343664;28;993;-68
2021/06/14 00:45:15;;;;;;;4.80;2.60;;;;;;;;;;343739;28;1011;-68
2021/06/14 00:45:30;;;;;;;3.40;2.50;;;;;;;;;;341409;28;40125;-68
2021/06/14 00:45:44;;;;;;;3.40;2.42;;;;;;;;;;340524;28;63065;-68
2021/06/14 00:45:56;;;;;;;5.00;2.33;;;;;;;;;;342035;28;16673;-67
2021/06/14 00:46:09;;;;;;;5.60;2.20;;;;;;;;;;342627;28;2092;-67
2021/06/14 00:46:21;;;;;;;4.86;2.12;;;;;;;;;;342693;28;1007;-67
2021/06/14 00:46:33;;;;;;;4.70;2.35;;;;;;;;;;342672;28;1081;-68
2021/06/14 00:46:45;;;;;;;5.13;2.45;;;;;;;;;;342359;28;988;-68
2021/06/14 00:46:57;;;;;;;5.25;2.45;;;;;;;;;;342662;28;999;-68
2021/06/14 00:47:09;;;;;;;4.13;2.30;;;;;;;;;;342617;28;1127;-68
2021/06/14 00:47:22;;;;;;;4.78;2.33;;;;;;;;;;342583;28;1060;-68
2021/06/14 00:47:34;;;;;;;5.22;2.42;;;;;;;;;;342556;28;988;-68
2021/06/14 00:47:46;;;;;;;5.60;2.60;;;;;;;;;;342562;28;1066;-67
2021/06/14 00:47:59;;;;;;;4.95;2.50;;;;;;;;;;342662;28;1114;-68
2021/06/14 00:48:12;;;;;;;3.83;2.45;;;;;;;;;;342142;28;17047;-68
2021/06/14 00:48:25;;;;;;;3.95;2.50;;;;;;;;;;342603;28;1052;-68
2021/06/14 00:48:37;;;;;;;4.70;2.53;;;;;;;;;;342526;28;1061;-68
2021/06/14 00:48:49;;;;;;;4.82;2.53;;;;;;;;;;342526;28;2000;-68
2021/06/14 00:49:01;;;;;;;3.90;2.40;;;;;;;;;;342599;28;1105;-68
2021/06/14 00:49:13;;;;;;;2.85;2.28;;;;;;;;;;342550;28;999;-68
2021/06/14 00:49:25;;;;;;;2.67;2.40;;;;;;;;;;342599;28;1127;-67
2021/06/14 00:49:37;;;;;;;2.85;2.50;;;;;;;;;;343556;28;1106;-67
2021/06/14 00:49:49;;;;;;;3.30;2.53;;;;;;;;;;343764;28;1115;-68
2021/06/14 00:50:02;;;;;;;3.95;2.40;;;;;;;;;;343964;28;1172;-67
2021/06/14 00:50:16;;;;;;;4.72;2.50;;;;;;;;;;343839;28;1098;-68
2021/06/14 00:50:33;;;;;;;4.80;2.63;;;;;;;;;;343649;28;1015;-67
2021/06/14 00:50:47;;;;;;;4.68;2.50;;;;;;;;;;341758;28;62910;-68
2021/06/14 00:51:00;;;;;;;5.30;2.47;;;;;;;;;;343275;28;17102;-68
2021/06/14 00:51:12;;;;;;;4.50;2.38;;;;;;;;;;343784;28;1106;-68
2021/06/14 00:51:24;;;;;;;3.50;2.22;;;;;;;;;;343539;28;1075;-68
2021/06/14 00:51:36;;;;;;;3.15;2.20;;;;;;;;;;343797;28;1114;-69
2021/06/14 00:51:48;;;;;;;3.83;2.22;;;;;;;;;;343625;28;1375;-68
2021/06/14 00:52:01;;;;;;;4.43;2.35;;;;;;;;;;343797;28;1131;-68
2021/06/14 00:52:13;;;;;;;4.03;2.30;;;;;;;;;;343809;28;1142;-68
2021/06/14 00:52:25;;;;;;;3.97;2.35;;;;;;;;;;343586;28;1063;-68
2021/06/14 00:52:38;;;;;;;3.60;2.30;;;;;;;;;;342699;28;1015;-67
2021/06/14 00:52:50;;;;;;;4.32;2.45;;;;;;;;;;343872;28;1220;-68
2021/06/14 00:53:02;;;;;;;4.43;2.60;;;;;;;;;;343683;28;1027;-68
2021/06/14 00:53:18;;;;;;;4.97;2.47;;;;;;;;;;343924;28;1025;-67
2021/06/14 00:53:31;;;;;;;4.35;2.35;;;;;;;;;;342489;28;40361;-68
2021/06/14 00:53:43;;;;;;;3.40;2.47;;;;;;;;;;343467;28;17007;-67
2021/06/14 00:53:59;;;;;;;3.80;2.60;;;;;;;;;;344011;28;1216;-67
2021/06/14 00:54:11;;;;;;;4.75;2.42;;;;;;;;;;341799;28;64109;-68
2021/06/14 00:54:24;;;;;;;4.88;2.50;;;;;;;;;;343648;28;1118;-67
2021/06/14 00:54:36;;;;;;;4.28;2.42;;;;;;;;;;344016;28;1041;-68
2021/06/14 00:54:48;;;;;;;5.00;2.50;;;;;;;;;;343859;28;1165;-67
2021/06/14 00:55:00;;;;;;;5.10;2.60;;;;;;;;;;343756;28;999;-68
2021/06/14 00:55:14;;;;;;;4.22;2.60;;;;;;;;;;343682;28;1176;-67
2021/06/14 00:55:26;;;;;;;4.13;2.58;;;;;;;;;;343213;28;17084;-68
2021/06/14 00:55:39;;;;;;;5.00;2.50;;;;;;;;;;343843;28;1039;-69
2021/06/14 00:55:51;;;;;;;5.10;2.50;;;;;;;;;;343834;28;1048;-68
2021/06/14 00:56:05;;;;;;;4.75;2.40;;;;;;;;;;345064;28;1169;-68
2021/06/14 00:56:18;;;;;;;4.68;2.45;;;;;;;;;;344599;28;18098;-68
2021/06/14 00:56:31;;;;;;;4.60;2.53;;;;;;;;;;345148;28;1193;-67
2021/06/14 00:56:43;;;;;;;4.80;2.50;;;;;;;;;;345116;28;1113;-68
2021/06/14 00:56:55;;;;;;;4.22;2.38;;;;;;;;;;343751;28;1098;-68
2021/06/14 00:57:07;;;;;;;4.13;2.40;;;;;;;;;;343858;28;1356;-68
2021/06/14 00:57:20;;;;;;;4.65;2.60;;;;;;;;;;343852;28;1285;-68
2021/06/14 00:57:32;;;;;;;4.20;2.50;;;;;;;;;;343999;28;1062;-68
2021/06/14 00:57:44;;;;;;;3.63;2.25;;;;;;;;;;343745;28;1078;-68
2021/06/14 00:57:56;;;;;;;3.00;2.00;;;;;;;;;;343876;28;1078;-68
2021/06/14 00:58:09;;;;;;;3.47;2.00;;;;;;;;;;342593;28;1181;-68
2021/06/14 00:58:21;;;;;;;4.40;2.20;;;;;;;;;;342714;28;1363;-67
2021/06/14 00:58:33;;;;;;;4.00;2.22;;;;;;;;;;342715;28;1124;-67
2021/06/14 00:58:45;;;;;;;4.22;2.28;;;;;;;;;;342779;28;1102;-67
2021/06/14 00:58:58;;;;;;;3.97;2.30;;;;;;;;;;342497;28;1098;-67
2021/06/14 00:59:10;;;;;;;3.58;2.22;;;;;;;;;;342783;28;1092;-68
2021/06/14 00:59:23;;;;;;;3.95;2.20;;;;;;;;;;342638;28;1290;-68
2021/06/14 00:59:35;;;;;;;3.80;2.38;;;;;;;;;;342727;28;1201;-68
2021/06/14 00:59:47;;;;;;;5.15;2.53;;;;;;;;;;342631;28;1104;-68
2021/06/14 01:00:00;;;;;;;5.20;2.60;;;;;;;;;;342662;28;1023;-68
2021/06/14 01:00:13;;;;;;;4.07;2.50;;;;;;;;;;345001;28;1094;-68
2021/06/14 01:00:25;;;;;;;3.83;2.47;;;;;;;;;;345138;28;1168;-67
2021/06/14 01:00:38;;;;;;;3.88;2.55;;;;;;;;;;345196;28;1169;-68
2021/06/14 01:00:50;;;;;;;4.07;2.47;;;;;;;;;;344938;28;1107;-68
2021/06/14 01:01:03;;;;;;;3.65;2.22;;;;;;;;;;345103;28;1209;-67
2021/06/14 01:01:15;;;;;;;4.03;2.30;;;;;;;;;;345010;28;1149;-68
2021/06/14 01:01:27;;;;;;;5.03;2.40;;;;;;;;;;345299;28;1090;-68
2021/06/14 01:01:40;;;;;;;4.55;2.30;;;;;;;;;;343574;28;1011;-67
2021/06/14 01:01:52;;;;;;;4.20;2.20;;;;;;;;;;343779;28;1439;-67
2021/06/14 01:02:04;;;;;;;4.60;2.38;;;;;;;;;;343883;28;1164;-68
2021/06/14 01:02:16;;;;;;;4.90;2.53;;;;;;;;;;342800;28;1090;-68
2021/06/14 01:02:28;;;;;;;5.25;2.60;;;;;;;;;;342447;28;1065;-67
2021/06/14 01:02:41;;;;;;;5.13;2.65;;;;;;;;;;342279;28;1253;-67
2021/06/14 01:02:53;;;;;;;4.40;2.53;;;;;;;;;;342414;28;1054;-67
2021/06/14 01:03:05;;;;;;;4.03;2.40;;;;;;;;;;342677;28;1105;-67
2021/06/14 01:03:18;;;;;;;4.38;2.33;;;;;;;;;;342274;28;1056;-68
2021/06/14 01:03:30;;;;;;;5.00;2.38;;;;;;;;;;342250;28;1183;-68
2021/06/14 01:03:42;;;;;;;4.50;2.25;;;;;;;;;;342330;28;1043;-68
2021/06/14 01:03:54;;;;;;;4.25;2.22;;;;;;;;;;342599;28;1234;-67
2021/06/14 01:04:06;;;;;;;3.17;2.20;;;;;;;;;;342758;28;1098;-68
2021/06/14 01:04:19;;;;;;;3.55;2.45;;;;;;;;;;342682;28;1159;-67
2021/06/14 01:04:31;;;;;;;3.85;2.42;;;;;;;;;;342404;28;1055;-67
2021/06/14 01:04:43;;;;;;;3.15;2.20;;;;;;;;;;342539;28;1087;-68
2021/06/14 01:04:55;;;;;;;2.72;2.22;;;;;;;;;;342666;28;1106;-68
2021/06/14 01:05:09;;;;;;;3.47;2.47;;;;;;;;;;343861;28;1132;-68
2021/06/14 01:05:21;;;;;;;4.97;2.63;;;;;;;;;;343732;28;1258;-67
2021/06/14 01:05:36;;;;;;;5.53;2.70;;;;;;;;;;343569;28;1164;-68
2021/06/14 01:05:49;;;;;;;4.80;2.47;;;;;;;;;;343102;28;16633;-68
2021/06/14 01:06:05;;;;;;;3.63;2.30;;;;;;;;;;343159;28;16691;-67
2021/06/14 01:06:17;;;;;;;3.60;2.48;;;;;;;;;;342459;28;40313;-68
2021/06/14 01:06:29;;;;;;;4.07;2.40;;;;;;;;;;343741;28;987;-67
2021/06/14 01:06:41;;;;;;;4.60;2.50;;;;;;;;;;343627;28;1141;-68
2021/06/14 01:06:54;;;;;;;4.30;2.30;;;;;;;;;;343733;28;1090;-67
2021/06/14 01:07:06;;;;;;;4.13;2.20;;;;;;;;;;343474;28;1165;-68
2021/06/14 01:07:18;;;;;;;3.78;2.17;;;;;;;;;;342531;28;1192;-67
2021/06/14 01:07:30;;;;;;;3.80;2.28;;;;;;;;;;342721;28;1015;-68
2021/06/14 01:07:42;;;;;;;3.53;2.28;;;;;;;;;;342571;28;1090;-68
2021/06/14 01:07:55;;;;;;;2.75;2.00;;;;;;;;;;342729;28;1018;-68
2021/06/14 01:08:08;;;;;;;3.20;2.20;;;;;;;;;;342654;28;1090;-68
2021/06/14 01:08:20;;;;;;;3.53;2.28;;;;;;;;;;342659;28;1260;-68
2021/06/14 01:08:33;;;;;;;3.75;2.20;;;;;;;;;;342518;28;1169;-67
2021/06/14 01:08:47;;;;;;;4.53;2.17;;;;;;;;;;342076;28;16659;-68
2021/06/14 01:08:59;;;;;;;4.70;2.38;;;;;;;;;;342696;28;1640;-67
2021/06/14 01:09:11;;;;;;;4.88;2.45;;;;;;;;;;342388;28;1184;-68
2021/06/14 01:09:23;;;;;;;5.18;2.33;;;;;;;;;;342586;28;1111;-67
2021/06/14 01:09:35;;;;;;;5.38;2.30;;;;;;;;;;342690;28;1055;-68
2021/06/14 01:09:47;;;;;;;5.30;2.40;;;;;;;;;;343696;28;1067;-68
2021/06/14 01:10:00;;;;;;;5.90;2.47;;;;;;;;;;343771;28;1268;-68
2021/06/14 01:10:12;;;;;;;5.03;2.35;;;;;;;;;;343572;28;1073;-68
2021/06/14 01:10:25;;;;;;;4.50;2.22;;;;;;;;;;343775;28;1923;-67
2021/06/14 01:10:37;;;;;;;2.75;2.20;;;;;;;;;;343769;28;1110;-67
2021/06/14 01:10:50;;;;;;;3.83;2.20;;;;;;;;;;343685;28;960;-68
2021/06/14 01:11:06;;;;;;;4.30;2.50;;;;;;;;;;344064;28;1066;-67
2021/06/14 01:11:27;;;;;;;5.07;2.55;;;;;;;;;;341817;28;64035;-68
2021/06/14 01:11:45;;;;;;;6.05;2.65;;;;;;;;;;341582;28;62360;-68
2021/06/14 01:12:03;;;;;;;5.63;2.60;;;;;;;;;;340281;28;63625;-68
2021/06/14 01:12:18;;;;;;;4.28;2.50;;;;;;;;;;340417;28;63987;-67
2021/06/14 01:12:33;;;;;;;4.00;2.40;;;;;;;;;;341338;28;40084;-67
2021/06/14 01:12:51;;;;;;;3.83;2.30;;;;;;;;;;340622;28;63760;-67
2021/06/14 01:13:06;;;;;;;4.96;2.40;;;;;;;;;;340899;28;86657;-68
2021/06/14 01:13:24;;;;;;;4.88;2.40;;;;;;;;;;343197;28;16704;-68
2021/06/14 01:13:38;;;;;;;4.53;2.58;;;;;;;;;;341629;28;62446;-68
2021/06/14 01:13:54;;;;;;;4.22;2.60;;;;;;;;;;343145;28;16933;-67
2021/06/14 01:14:23;;;;;;;4.25;2.55;;;;;;;;;;341903;28;63051;-67
2021/06/14 01:14:38;;;;;;;4.75;2.30;;;;;;;;;;341892;28;63282;-67
2021/06/14 01:14:53;;;;;;;4.22;2.40;;;;;;;;;;343009;28;62681;-68
2021/06/14 01:15:14;;;;;;;3.72;2.40;;;;;;;;;;343875;28;41163;-68
2021/06/14 01:15:28;;;;;;;5.05;2.30;;;;;;;;;;343114;28;63677;-68
2021/06/14 01:15:49;;;;;;;5.28;2.40;;;;;;;;;;343757;28;41058;-68
2021/06/14 01:16:23;;;;;;;4.58;2.18;;;;;;;;;;342300;28;86832;-68
2021/06/14 01:16:36;;;;;;;5.40;2.60;;;;;;;;;;342855;28;64379;-67
2021/06/14 01:16:54;;;;;;;5.55;2.75;;;;;;;;;;344232;28;1081;-67
2021/06/14 01:17:29;;;;;;;6.10;2.63;;;;;;;;;;340593;28;63701;-67
2021/06/14 01:17:52;;;;;;;5.05;2.85;;;;;;;;;;340178;28;64370;-67
2021/06/14 01:18:05;;;;;;;4.63;2.47;;;;;;;;;;340397;28;63272;-68
2021/06/14 01:18:22;;;;;;;3.72;2.35;;;;;;;;;;341979;28;18096;-67
2021/06/14 01:18:36;;;;;;;6.07;2.50;;;;;;;;;;340440;28;63130;-69
2021/06/14 01:18:55;;;;;;;7.65;2.63;;;;;;;;;;341259;28;41131;-68
2021/06/14 01:19:07;;;;;;;7.00;2.72;;;;;;;;;;340505;28;63544;-68
2021/06/14 01:19:34;;;;;;;5.40;2.58;;;;;;;;;;342574;28;1112;-68
2021/06/14 01:19:46;;;;;;;4.13;2.28;;;;;;;;;;340545;28;62622;-67
2021/06/14 01:20:03;;;;;;;4.18;2.30;;;;;;;;;;342667;28;1168;-67
2021/06/14 01:20:33;;;;;;;3.67;2.35;;;;;;;;;;340589;28;63837;-68
2021/06/14 01:20:51;;;;;;;4.72;2.50;;;;;;;;;;340538;28;63176;-67
2021/06/14 01:21:12;;;;;;;5.80;2.58;;;;;;;;;;341984;28;62480;-69
2021/06/14 01:21:29;;;;;;;4.53;2.50;;;;;;;;;;343193;28;63415;-68